sensor_id;sensor_type;location;lat;lon;timestamp;P1;durP1;ratioP1;P2;durP2;ratioP2
55202;SDS011;41077;52.956;6.796;2023-05-09T00:00:16;41.55;;;32.13;;
55202;SDS011;41077;52.956;6.796;2023-05-09T00:02:42;39.30;;;31.25;;
55202;SDS011;41077;52.956;6.796;2023-05-09T00:05:10;34.80;;;28.25;;
55202;SDS011;41077;52.956;6.796;2023-05-09T00:07:36;32.97;;;29.45;;
55202;SDS011;41077;52.956;6.796;2023-05-09T00:10:02;33.60;;;28.95;;
55202;SDS011;41077;52.956;6.796;2023-05-09T00:12:28;35.42;;;29.77;;
55202;SDS011;41077;52.956;6.796;2023-05-09T00:14:54;37.35;;;31.48;;
55202;SDS011;41077;52.956;6.796;2023-05-09T00:17:21;43.67;;;32.78;;
55202;SDS011;41077;52.956;6.796;2023-05-09T00:19:50;36.30;;;30.88;;
55202;SDS011;41077;52.956;6.796;2023-05-09T00:22:18;41.17;;;32.97;;
55202;SDS011;41077;52.956;6.796;2023-05-09T00:24:47;38.30;;;30.60;;
55202;SDS011;41077;52.956;6.796;2023-05-09T00:27:13;36.38;;;30.23;;
55202;SDS011;41077;52.956;6.796;2023-05-09T00:29:40;32.00;;;27.35;;
55202;SDS011;41077;52.956;6.796;2023-05-09T00:32:06;43.28;;;32.92;;
55202;SDS011;41077;52.956;6.796;2023-05-09T00:34:32;40.33;;;31.95;;
55202;SDS011;41077;52.956;6.796;2023-05-09T00:36:58;32.88;;;29.17;;
55202;SDS011;41077;52.956;6.796;2023-05-09T00:39:24;38.80;;;32.00;;
55202;SDS011;41077;52.956;6.796;2023-05-09T00:41:50;37.25;;;31.38;;
55202;SDS011;41077;52.956;6.796;2023-05-09T00:44:17;44.75;;;33.53;;
55202;SDS011;41077;52.956;6.796;2023-05-09T00:46:43;42.47;;;34.13;;
55202;SDS011;41077;52.956;6.796;2023-05-09T00:49:09;49.00;;;37.13;;
55202;SDS011;41077;52.956;6.796;2023-05-09T00:51:37;45.00;;;36.40;;
55202;SDS011;41077;52.956;6.796;2023-05-09T00:54:03;54.00;;;38.63;;
55202;SDS011;41077;52.956;6.796;2023-05-09T00:56:29;45.80;;;34.15;;
55202;SDS011;41077;52.956;6.796;2023-05-09T00:58:55;49.08;;;35.97;;
55202;SDS011;41077;52.956;6.796;2023-05-09T01:01:21;49.67;;;36.67;;
55202;SDS011;41077;52.956;6.796;2023-05-09T01:03:48;59.50;;;39.85;;
55202;SDS011;41077;52.956;6.796;2023-05-09T01:08:48;74.95;;;47.45;;
55202;SDS011;41077;52.956;6.796;2023-05-09T01:11:30;60.67;;;41.15;;
55202;SDS011;41077;52.956;6.796;2023-05-09T01:22:12;79.90;;;48.65;;
55202;SDS011;41077;52.956;6.796;2023-05-09T01:27:32;86.28;;;49.83;;
55202;SDS011;41077;52.956;6.796;2023-05-09T01:30:02;82.93;;;49.97;;
55202;SDS011;41077;52.956;6.796;2023-05-09T01:32:31;72.30;;;46.03;;
55202;SDS011;41077;52.956;6.796;2023-05-09T01:35:00;86.10;;;49.47;;
55202;SDS011;41077;52.956;6.796;2023-05-09T01:37:28;74.35;;;47.33;;
55202;SDS011;41077;52.956;6.796;2023-05-09T01:39:55;79.07;;;48.08;;
55202;SDS011;41077;52.956;6.796;2023-05-09T01:42:23;91.25;;;52.13;;
55202;SDS011;41077;52.956;6.796;2023-05-09T01:44:50;69.00;;;46.80;;
55202;SDS011;41077;52.956;6.796;2023-05-09T01:47:17;99.82;;;54.50;;
55202;SDS011;41077;52.956;6.796;2023-05-09T01:49:44;88.70;;;52.15;;
55202;SDS011;41077;52.956;6.796;2023-05-09T01:52:12;87.15;;;51.40;;
55202;SDS011;41077;52.956;6.796;2023-05-09T01:54:39;87.47;;;52.17;;
55202;SDS011;41077;52.956;6.796;2023-05-09T01:57:05;80.18;;;50.05;;
55202;SDS011;41077;52.956;6.796;2023-05-09T01:59:32;94.15;;;52.47;;
55202;SDS011;41077;52.956;6.796;2023-05-09T02:01:59;76.60;;;48.17;;
55202;SDS011;41077;52.956;6.796;2023-05-09T02:04:25;84.63;;;49.67;;
55202;SDS011;41077;52.956;6.796;2023-05-09T02:06:53;83.40;;;50.63;;
55202;SDS011;41077;52.956;6.796;2023-05-09T02:09:19;85.72;;;50.47;;
55202;SDS011;41077;52.956;6.796;2023-05-09T02:11:46;87.40;;;48.88;;
55202;SDS011;41077;52.956;6.796;2023-05-09T02:14:12;83.65;;;51.72;;
55202;SDS011;41077;52.956;6.796;2023-05-09T02:16:38;84.28;;;50.03;;
55202;SDS011;41077;52.956;6.796;2023-05-09T02:19:05;71.93;;;46.15;;
55202;SDS011;41077;52.956;6.796;2023-05-09T02:21:31;69.93;;;44.70;;
55202;SDS011;41077;52.956;6.796;2023-05-09T02:23:57;78.32;;;48.10;;
55202;SDS011;41077;52.956;6.796;2023-05-09T02:26:23;76.75;;;47.47;;
55202;SDS011;41077;52.956;6.796;2023-05-09T02:28:50;77.03;;;47.20;;
55202;SDS011;41077;52.956;6.796;2023-05-09T02:31:16;69.03;;;43.13;;
55202;SDS011;41077;52.956;6.796;2023-05-09T02:33:43;59.50;;;41.22;;
55202;SDS011;41077;52.956;6.796;2023-05-09T02:36:11;50.42;;;37.30;;
55202;SDS011;41077;52.956;6.796;2023-05-09T02:38:37;47.70;;;36.05;;
55202;SDS011;41077;52.956;6.796;2023-05-09T02:41:03;46.45;;;35.50;;
55202;SDS011;41077;52.956;6.796;2023-05-09T02:43:29;44.72;;;35.40;;
55202;SDS011;41077;52.956;6.796;2023-05-09T02:45:55;49.35;;;34.33;;
55202;SDS011;41077;52.956;6.796;2023-05-09T02:48:21;46.10;;;35.38;;
55202;SDS011;41077;52.956;6.796;2023-05-09T02:50:47;39.65;;;32.83;;
55202;SDS011;41077;52.956;6.796;2023-05-09T02:53:13;44.78;;;34.05;;
55202;SDS011;41077;52.956;6.796;2023-05-09T02:55:39;42.80;;;33.30;;
55202;SDS011;41077;52.956;6.796;2023-05-09T02:58:05;41.38;;;32.83;;
55202;SDS011;41077;52.956;6.796;2023-05-09T03:00:31;44.70;;;34.20;;
55202;SDS011;41077;52.956;6.796;2023-05-09T03:02:57;43.15;;;32.88;;
55202;SDS011;41077;52.956;6.796;2023-05-09T03:05:24;47.47;;;34.15;;
55202;SDS011;41077;52.956;6.796;2023-05-09T03:07:50;44.53;;;32.47;;
55202;SDS011;41077;52.956;6.796;2023-05-09T03:10:16;41.50;;;32.03;;
55202;SDS011;41077;52.956;6.796;2023-05-09T03:12:42;38.08;;;29.98;;
55202;SDS011;41077;52.956;6.796;2023-05-09T03:15:08;40.38;;;29.75;;
55202;SDS011;41077;52.956;6.796;2023-05-09T03:17:34;36.30;;;30.15;;
55202;SDS011;41077;52.956;6.796;2023-05-09T03:20:00;39.55;;;30.00;;
55202;SDS011;41077;52.956;6.796;2023-05-09T03:22:29;39.10;;;30.02;;
55202;SDS011;41077;52.956;6.796;2023-05-09T03:24:55;34.25;;;27.48;;
55202;SDS011;41077;52.956;6.796;2023-05-09T03:27:21;34.33;;;27.23;;
55202;SDS011;41077;52.956;6.796;2023-05-09T03:29:47;33.75;;;27.40;;
55202;SDS011;41077;52.956;6.796;2023-05-09T03:32:13;36.38;;;28.98;;
55202;SDS011;41077;52.956;6.796;2023-05-09T03:34:39;35.53;;;28.20;;
55202;SDS011;41077;52.956;6.796;2023-05-09T03:37:05;34.42;;;28.23;;
55202;SDS011;41077;52.956;6.796;2023-05-09T03:39:32;36.72;;;28.08;;
55202;SDS011;41077;52.956;6.796;2023-05-09T03:41:58;35.63;;;27.90;;
55202;SDS011;41077;52.956;6.796;2023-05-09T03:44:24;38.53;;;28.55;;
55202;SDS011;41077;52.956;6.796;2023-05-09T03:46:50;32.85;;;25.92;;
55202;SDS011;41077;52.956;6.796;2023-05-09T03:49:16;33.72;;;26.13;;
55202;SDS011;41077;52.956;6.796;2023-05-09T03:51:42;34.53;;;27.30;;
55202;SDS011;41077;52.956;6.796;2023-05-09T03:54:08;30.35;;;26.42;;
55202;SDS011;41077;52.956;6.796;2023-05-09T03:56:34;31.67;;;26.73;;
55202;SDS011;41077;52.956;6.796;2023-05-09T03:59:00;37.25;;;28.45;;
55202;SDS011;41077;52.956;6.796;2023-05-09T04:01:26;34.60;;;27.02;;
55202;SDS011;41077;52.956;6.796;2023-05-09T04:03:52;37.20;;;27.38;;
55202;SDS011;41077;52.956;6.796;2023-05-09T04:06:19;32.95;;;26.80;;
55202;SDS011;41077;52.956;6.796;2023-05-09T04:08:45;33.90;;;27.23;;
55202;SDS011;41077;52.956;6.796;2023-05-09T04:11:11;36.67;;;27.45;;
55202;SDS011;41077;52.956;6.796;2023-05-09T04:13:37;33.47;;;27.75;;
55202;SDS011;41077;52.956;6.796;2023-05-09T04:16:03;32.63;;;27.85;;
55202;SDS011;41077;52.956;6.796;2023-05-09T04:18:29;35.28;;;28.10;;
55202;SDS011;41077;52.956;6.796;2023-05-09T04:20:55;31.60;;;27.25;;
55202;SDS011;41077;52.956;6.796;2023-05-09T04:23:21;35.85;;;27.35;;
55202;SDS011;41077;52.956;6.796;2023-05-09T04:25:47;35.90;;;28.92;;
55202;SDS011;41077;52.956;6.796;2023-05-09T04:28:16;37.70;;;28.55;;
55202;SDS011;41077;52.956;6.796;2023-05-09T04:30:42;39.33;;;29.88;;
55202;SDS011;41077;52.956;6.796;2023-05-09T04:33:08;40.63;;;29.00;;
55202;SDS011;41077;52.956;6.796;2023-05-09T04:35:34;35.13;;;28.23;;
55202;SDS011;41077;52.956;6.796;2023-05-09T04:38:00;34.63;;;28.55;;
55202;SDS011;41077;52.956;6.796;2023-05-09T04:40:26;39.08;;;29.92;;
55202;SDS011;41077;52.956;6.796;2023-05-09T04:42:52;38.00;;;28.33;;
55202;SDS011;41077;52.956;6.796;2023-05-09T04:45:18;41.20;;;29.70;;
55202;SDS011;41077;52.956;6.796;2023-05-09T04:47:44;37.30;;;28.92;;
55202;SDS011;41077;52.956;6.796;2023-05-09T04:50:11;38.67;;;29.95;;
55202;SDS011;41077;52.956;6.796;2023-05-09T04:52:37;35.83;;;27.67;;
55202;SDS011;41077;52.956;6.796;2023-05-09T04:55:03;38.58;;;29.33;;
55202;SDS011;41077;52.956;6.796;2023-05-09T04:57:29;41.38;;;29.88;;
55202;SDS011;41077;52.956;6.796;2023-05-09T04:59:55;38.80;;;28.08;;
55202;SDS011;41077;52.956;6.796;2023-05-09T05:02:21;37.15;;;29.60;;
55202;SDS011;41077;52.956;6.796;2023-05-09T05:04:49;36.65;;;30.20;;
55202;SDS011;41077;52.956;6.796;2023-05-09T05:07:15;39.13;;;31.08;;
55202;SDS011;41077;52.956;6.796;2023-05-09T05:09:41;38.28;;;29.77;;
55202;SDS011;41077;52.956;6.796;2023-05-09T05:12:07;40.38;;;30.38;;
55202;SDS011;41077;52.956;6.796;2023-05-09T05:14:33;40.03;;;30.33;;
55202;SDS011;41077;52.956;6.796;2023-05-09T05:16:59;39.55;;;31.08;;
55202;SDS011;41077;52.956;6.796;2023-05-09T05:19:25;40.08;;;31.88;;
55202;SDS011;41077;52.956;6.796;2023-05-09T05:21:51;43.97;;;32.85;;
55202;SDS011;41077;52.956;6.796;2023-05-09T05:24:17;41.33;;;31.45;;
55202;SDS011;41077;52.956;6.796;2023-05-09T05:26:43;40.00;;;30.08;;
55202;SDS011;41077;52.956;6.796;2023-05-09T05:29:09;38.95;;;31.27;;
55202;SDS011;41077;52.956;6.796;2023-05-09T05:31:35;40.35;;;31.02;;
55202;SDS011;41077;52.956;6.796;2023-05-09T05:34:02;41.25;;;31.00;;
55202;SDS011;41077;52.956;6.796;2023-05-09T05:36:28;40.03;;;30.55;;
55202;SDS011;41077;52.956;6.796;2023-05-09T05:38:54;37.65;;;30.05;;
55202;SDS011;41077;52.956;6.796;2023-05-09T05:41:20;38.42;;;30.83;;
55202;SDS011;41077;52.956;6.796;2023-05-09T05:43:46;37.90;;;30.52;;
55202;SDS011;41077;52.956;6.796;2023-05-09T05:46:12;41.83;;;31.60;;
55202;SDS011;41077;52.956;6.796;2023-05-09T05:48:38;40.45;;;32.85;;
55202;SDS011;41077;52.956;6.796;2023-05-09T05:51:04;41.63;;;31.77;;
55202;SDS011;41077;52.956;6.796;2023-05-09T05:53:30;40.42;;;32.17;;
55202;SDS011;41077;52.956;6.796;2023-05-09T05:55:56;38.47;;;31.35;;
55202;SDS011;41077;52.956;6.796;2023-05-09T05:58:22;42.33;;;31.75;;
55202;SDS011;41077;52.956;6.796;2023-05-09T06:00:50;41.72;;;32.75;;
55202;SDS011;41077;52.956;6.796;2023-05-09T06:03:16;41.85;;;33.95;;
55202;SDS011;41077;52.956;6.796;2023-05-09T06:05:42;40.17;;;33.17;;
55202;SDS011;41077;52.956;6.796;2023-05-09T06:08:08;43.33;;;33.60;;
55202;SDS011;41077;52.956;6.796;2023-05-09T06:10:34;41.13;;;33.78;;
55202;SDS011;41077;52.956;6.796;2023-05-09T06:13:00;39.28;;;31.70;;
55202;SDS011;41077;52.956;6.796;2023-05-09T06:15:26;40.47;;;33.53;;
55202;SDS011;41077;52.956;6.796;2023-05-09T06:17:52;36.72;;;31.35;;
55202;SDS011;41077;52.956;6.796;2023-05-09T06:20:18;37.92;;;31.20;;
55202;SDS011;41077;52.956;6.796;2023-05-09T06:22:44;38.15;;;31.65;;
55202;SDS011;41077;52.956;6.796;2023-05-09T06:25:10;41.58;;;32.08;;
55202;SDS011;41077;52.956;6.796;2023-05-09T06:27:37;40.97;;;32.63;;
55202;SDS011;41077;52.956;6.796;2023-05-09T06:30:03;42.67;;;33.60;;
55202;SDS011;41077;52.956;6.796;2023-05-09T06:32:29;39.40;;;32.22;;
55202;SDS011;41077;52.956;6.796;2023-05-09T06:34:55;43.20;;;33.38;;
55202;SDS011;41077;52.956;6.796;2023-05-09T06:37:21;50.92;;;35.63;;
55202;SDS011;41077;52.956;6.796;2023-05-09T06:39:47;45.75;;;35.88;;
55202;SDS011;41077;52.956;6.796;2023-05-09T06:42:15;45.85;;;35.55;;
55202;SDS011;41077;52.956;6.796;2023-05-09T06:44:41;49.70;;;35.53;;
55202;SDS011;41077;52.956;6.796;2023-05-09T06:47:08;55.65;;;37.10;;
55202;SDS011;41077;52.956;6.796;2023-05-09T06:49:34;52.67;;;37.28;;
55202;SDS011;41077;52.956;6.796;2023-05-09T06:52:00;58.33;;;40.00;;
55202;SDS011;41077;52.956;6.796;2023-05-09T06:54:26;56.63;;;37.95;;
55202;SDS011;41077;52.956;6.796;2023-05-09T06:56:52;55.20;;;36.97;;
55202;SDS011;41077;52.956;6.796;2023-05-09T06:59:18;54.17;;;37.85;;
55202;SDS011;41077;52.956;6.796;2023-05-09T07:01:44;54.80;;;37.95;;
55202;SDS011;41077;52.956;6.796;2023-05-09T07:04:10;57.25;;;37.63;;
55202;SDS011;41077;52.956;6.796;2023-05-09T07:06:36;49.88;;;38.08;;
55202;SDS011;41077;52.956;6.796;2023-05-09T07:09:02;54.00;;;38.00;;
55202;SDS011;41077;52.956;6.796;2023-05-09T07:11:32;65.38;;;42.05;;
55202;SDS011;41077;52.956;6.796;2023-05-09T07:13:59;62.28;;;40.33;;
55202;SDS011;41077;52.956;6.796;2023-05-09T07:16:25;61.78;;;40.67;;
55202;SDS011;41077;52.956;6.796;2023-05-09T07:18:53;69.03;;;41.83;;
55202;SDS011;41077;52.956;6.796;2023-05-09T07:21:19;59.30;;;42.70;;
55202;SDS011;41077;52.956;6.796;2023-05-09T07:23:45;68.53;;;44.03;;
55202;SDS011;41077;52.956;6.796;2023-05-09T07:26:12;62.53;;;41.05;;
55202;SDS011;41077;52.956;6.796;2023-05-09T07:28:38;69.65;;;43.80;;
55202;SDS011;41077;52.956;6.796;2023-05-09T07:31:04;66.57;;;43.58;;
55202;SDS011;41077;52.956;6.796;2023-05-09T07:33:30;72.43;;;43.20;;
55202;SDS011;41077;52.956;6.796;2023-05-09T07:35:57;67.80;;;42.67;;
55202;SDS011;41077;52.956;6.796;2023-05-09T07:38:23;69.78;;;41.65;;
55202;SDS011;41077;52.956;6.796;2023-05-09T07:40:49;67.15;;;43.55;;
55202;SDS011;41077;52.956;6.796;2023-05-09T07:43:17;61.22;;;40.10;;
55202;SDS011;41077;52.956;6.796;2023-05-09T07:45:43;63.05;;;41.42;;
55202;SDS011;41077;52.956;6.796;2023-05-09T07:48:10;62.13;;;41.90;;
55202;SDS011;41077;52.956;6.796;2023-05-09T07:50:36;61.22;;;41.15;;
55202;SDS011;41077;52.956;6.796;2023-05-09T07:53:02;64.82;;;43.90;;
55202;SDS011;41077;52.956;6.796;2023-05-09T07:55:28;63.50;;;42.30;;
55202;SDS011;41077;52.956;6.796;2023-05-09T07:57:54;68.30;;;43.47;;
55202;SDS011;41077;52.956;6.796;2023-05-09T08:00:20;71.88;;;43.80;;
55202;SDS011;41077;52.956;6.796;2023-05-09T08:02:51;68.78;;;41.75;;
55202;SDS011;41077;52.956;6.796;2023-05-09T08:05:17;63.90;;;42.03;;
55202;SDS011;41077;52.956;6.796;2023-05-09T08:07:44;64.97;;;43.50;;
55202;SDS011;41077;52.956;6.796;2023-05-09T08:10:10;69.70;;;42.33;;
55202;SDS011;41077;52.956;6.796;2023-05-09T08:12:36;61.97;;;41.33;;
55202;SDS011;41077;52.956;6.796;2023-05-09T08:15:02;64.20;;;42.25;;
55202;SDS011;41077;52.956;6.796;2023-05-09T08:17:29;62.25;;;40.92;;
55202;SDS011;41077;52.956;6.796;2023-05-09T08:19:55;60.13;;;39.72;;
55202;SDS011;41077;52.956;6.796;2023-05-09T08:22:21;62.92;;;41.90;;
55202;SDS011;41077;52.956;6.796;2023-05-09T08:24:47;67.25;;;42.45;;
55202;SDS011;41077;52.956;6.796;2023-05-09T08:27:13;64.82;;;41.38;;
55202;SDS011;41077;52.956;6.796;2023-05-09T08:29:39;61.85;;;39.60;;
55202;SDS011;41077;52.956;6.796;2023-05-09T08:32:06;62.42;;;40.60;;
55202;SDS011;41077;52.956;6.796;2023-05-09T08:34:32;75.63;;;42.95;;
55202;SDS011;41077;52.956;6.796;2023-05-09T08:36:59;70.55;;;42.38;;
55202;SDS011;41077;52.956;6.796;2023-05-09T08:39:25;66.93;;;42.03;;
55202;SDS011;41077;52.956;6.796;2023-05-09T08:41:58;67.18;;;41.65;;
55202;SDS011;41077;52.956;6.796;2023-05-09T08:44:24;62.03;;;41.22;;
55202;SDS011;41077;52.956;6.796;2023-05-09T08:46:51;63.75;;;40.75;;
55202;SDS011;41077;52.956;6.796;2023-05-09T08:49:18;61.78;;;41.08;;
55202;SDS011;41077;52.956;6.796;2023-05-09T08:51:45;59.67;;;40.20;;
55202;SDS011;41077;52.956;6.796;2023-05-09T08:54:12;61.28;;;39.95;;
55202;SDS011;41077;52.956;6.796;2023-05-09T08:56:39;59.35;;;39.65;;
55202;SDS011;41077;52.956;6.796;2023-05-09T08:59:05;58.05;;;38.40;;
55202;SDS011;41077;52.956;6.796;2023-05-09T09:01:34;59.65;;;38.30;;
55202;SDS011;41077;52.956;6.796;2023-05-09T09:04:01;52.92;;;37.15;;
55202;SDS011;41077;52.956;6.796;2023-05-09T09:06:29;50.35;;;35.35;;
55202;SDS011;41077;52.956;6.796;2023-05-09T09:08:58;52.35;;;35.92;;
55202;SDS011;41077;52.956;6.796;2023-05-09T09:11:25;50.28;;;35.97;;
55202;SDS011;41077;52.956;6.796;2023-05-09T09:13:53;49.42;;;36.67;;
55202;SDS011;41077;52.956;6.796;2023-05-09T09:16:20;51.40;;;36.55;;
55202;SDS011;41077;52.956;6.796;2023-05-09T09:18:47;48.38;;;34.63;;
55202;SDS011;41077;52.956;6.796;2023-05-09T09:21:16;48.50;;;34.95;;
55202;SDS011;41077;52.956;6.796;2023-05-09T09:23:46;42.60;;;32.92;;
55202;SDS011;41077;52.956;6.796;2023-05-09T09:26:13;46.80;;;33.75;;
55202;SDS011;41077;52.956;6.796;2023-05-09T09:28:38;42.55;;;33.45;;
55202;SDS011;41077;52.956;6.796;2023-05-09T09:34:02;47.92;;;32.22;;
55202;SDS011;41077;52.956;6.796;2023-05-09T09:36:29;44.92;;;32.90;;
55202;SDS011;41077;52.956;6.796;2023-05-09T09:39:01;43.03;;;31.92;;
55202;SDS011;41077;52.956;6.796;2023-05-09T09:41:32;42.80;;;32.13;;
55202;SDS011;41077;52.956;6.796;2023-05-09T09:43:58;46.95;;;31.92;;
55202;SDS011;41077;52.956;6.796;2023-05-09T09:46:39;43.97;;;31.73;;
55202;SDS011;41077;52.956;6.796;2023-05-09T09:49:15;44.45;;;33.00;;
55202;SDS011;41077;52.956;6.796;2023-05-09T09:51:41;47.28;;;33.38;;
55202;SDS011;41077;52.956;6.796;2023-05-09T09:54:08;44.85;;;30.92;;
55202;SDS011;41077;52.956;6.796;2023-05-09T09:56:48;41.60;;;30.83;;
55202;SDS011;41077;52.956;6.796;2023-05-09T09:59:18;41.78;;;31.80;;
55202;SDS011;41077;52.956;6.796;2023-05-09T10:01:55;41.25;;;32.00;;
55202;SDS011;41077;52.956;6.796;2023-05-09T10:04:25;42.33;;;31.60;;
55202;SDS011;41077;52.956;6.796;2023-05-09T10:07:09;44.22;;;32.63;;
55202;SDS011;41077;52.956;6.796;2023-05-09T10:09:35;43.53;;;32.20;;
55202;SDS011;41077;52.956;6.796;2023-05-09T10:12:05;42.03;;;31.30;;
55202;SDS011;41077;52.956;6.796;2023-05-09T10:14:33;43.55;;;32.15;;
55202;SDS011;41077;52.956;6.796;2023-05-09T10:16:59;42.05;;;31.60;;
55202;SDS011;41077;52.956;6.796;2023-05-09T10:19:27;44.47;;;30.40;;
55202;SDS011;41077;52.956;6.796;2023-05-09T10:21:58;37.78;;;28.83;;
55202;SDS011;41077;52.956;6.796;2023-05-09T10:24:34;41.97;;;29.40;;
55202;SDS011;41077;52.956;6.796;2023-05-09T10:27:21;40.03;;;28.92;;
55202;SDS011;41077;52.956;6.796;2023-05-09T10:32:38;40.58;;;28.20;;
55202;SDS011;41077;52.956;6.796;2023-05-09T10:35:13;39.50;;;28.85;;
55202;SDS011;41077;52.956;6.796;2023-05-09T10:37:41;37.70;;;28.98;;
55202;SDS011;41077;52.956;6.796;2023-05-09T10:40:09;38.10;;;27.73;;
55202;SDS011;41077;52.956;6.796;2023-05-09T10:42:39;38.85;;;28.63;;
55202;SDS011;41077;52.956;6.796;2023-05-09T10:45:09;37.60;;;29.42;;
55202;SDS011;41077;52.956;6.796;2023-05-09T10:47:37;36.88;;;28.00;;
55202;SDS011;41077;52.956;6.796;2023-05-09T10:50:04;37.05;;;28.05;;
55202;SDS011;41077;52.956;6.796;2023-05-09T10:52:32;37.95;;;29.15;;
55202;SDS011;41077;52.956;6.796;2023-05-09T10:54:58;43.55;;;33.22;;
55202;SDS011;41077;52.956;6.796;2023-05-09T10:57:26;49.20;;;35.33;;
55202;SDS011;41077;52.956;6.796;2023-05-09T10:59:53;47.92;;;35.45;;
55202;SDS011;41077;52.956;6.796;2023-05-09T11:02:20;48.72;;;34.78;;
55202;SDS011;41077;52.956;6.796;2023-05-09T11:04:46;47.13;;;34.85;;
55202;SDS011;41077;52.956;6.796;2023-05-09T11:07:24;51.83;;;36.38;;
55202;SDS011;41077;52.956;6.796;2023-05-09T11:10:13;45.05;;;32.85;;
55202;SDS011;41077;52.956;6.796;2023-05-09T11:15:22;45.33;;;33.88;;
55202;SDS011;41077;52.956;6.796;2023-05-09T11:18:08;46.95;;;35.65;;
55202;SDS011;41077;52.956;6.796;2023-05-09T11:20:35;47.97;;;35.92;;
55202;SDS011;41077;52.956;6.796;2023-05-09T11:23:06;48.75;;;36.40;;
55202;SDS011;41077;52.956;6.796;2023-05-09T11:25:33;46.10;;;34.80;;
55202;SDS011;41077;52.956;6.796;2023-05-09T11:27:59;47.42;;;35.42;;
55202;SDS011;41077;52.956;6.796;2023-05-09T11:30:35;49.13;;;35.72;;
55202;SDS011;41077;52.956;6.796;2023-05-09T11:33:04;52.97;;;36.55;;
55202;SDS011;41077;52.956;6.796;2023-05-09T11:35:31;50.35;;;36.05;;
55202;SDS011;41077;52.956;6.796;2023-05-09T11:40:25;49.03;;;35.67;;
55202;SDS011;41077;52.956;6.796;2023-05-09T11:42:52;56.20;;;36.13;;
55202;SDS011;41077;52.956;6.796;2023-05-09T11:45:20;47.63;;;35.33;;
55202;SDS011;41077;52.956;6.796;2023-05-09T11:47:48;51.38;;;35.97;;
55202;SDS011;41077;52.956;6.796;2023-05-09T11:50:15;50.53;;;36.42;;
55202;SDS011;41077;52.956;6.796;2023-05-09T11:52:43;56.55;;;36.70;;
55202;SDS011;41077;52.956;6.796;2023-05-09T11:55:09;53.55;;;36.72;;
55202;SDS011;41077;52.956;6.796;2023-05-09T11:57:46;53.15;;;35.40;;
55202;SDS011;41077;52.956;6.796;2023-05-09T12:00:19;51.80;;;36.60;;
55202;SDS011;41077;52.956;6.796;2023-05-09T12:02:47;45.28;;;34.60;;
55202;SDS011;41077;52.956;6.796;2023-05-09T12:05:16;52.17;;;35.40;;
55202;SDS011;41077;52.956;6.796;2023-05-09T12:07:43;50.00;;;35.63;;
55202;SDS011;41077;52.956;6.796;2023-05-09T12:10:12;45.67;;;33.90;;
55202;SDS011;41077;52.956;6.796;2023-05-09T12:12:46;52.83;;;34.72;;
55202;SDS011;41077;52.956;6.796;2023-05-09T12:15:13;44.85;;;33.88;;
55202;SDS011;41077;52.956;6.796;2023-05-09T12:17:41;46.03;;;34.92;;
55202;SDS011;41077;52.956;6.796;2023-05-09T12:20:08;42.00;;;32.28;;
55202;SDS011;41077;52.956;6.796;2023-05-09T12:22:34;43.58;;;31.65;;
55202;SDS011;41077;52.956;6.796;2023-05-09T12:25:04;42.88;;;31.02;;
55202;SDS011;41077;52.956;6.796;2023-05-09T12:27:34;38.70;;;30.80;;
55202;SDS011;41077;52.956;6.796;2023-05-09T12:30:04;58.58;;;39.38;;
55202;SDS011;41077;52.956;6.796;2023-05-09T12:32:34;64.10;;;42.50;;
55202;SDS011;41077;52.956;6.796;2023-05-09T12:35:01;60.63;;;40.25;;
55202;SDS011;41077;52.956;6.796;2023-05-09T12:37:28;62.63;;;41.45;;
55202;SDS011;41077;52.956;6.796;2023-05-09T12:40:00;65.70;;;42.53;;
55202;SDS011;41077;52.956;6.796;2023-05-09T12:42:29;62.15;;;43.10;;
55202;SDS011;41077;52.956;6.796;2023-05-09T12:45:02;79.15;;;44.80;;
55202;SDS011;41077;52.956;6.796;2023-05-09T12:47:28;68.68;;;45.63;;
55202;SDS011;41077;52.956;6.796;2023-05-09T12:49:58;69.60;;;46.28;;
55202;SDS011;41077;52.956;6.796;2023-05-09T12:52:36;65.35;;;43.80;;
55202;SDS011;41077;52.956;6.796;2023-05-09T12:55:10;70.97;;;44.22;;
55202;SDS011;41077;52.956;6.796;2023-05-09T12:57:39;68.10;;;43.55;;
55202;SDS011;41077;52.956;6.796;2023-05-09T13:00:06;72.72;;;46.13;;
55202;SDS011;41077;52.956;6.796;2023-05-09T13:02:34;73.65;;;46.20;;
55202;SDS011;41077;52.956;6.796;2023-05-09T13:05:19;70.85;;;46.15;;
55202;SDS011;41077;52.956;6.796;2023-05-09T13:07:49;75.68;;;47.90;;
55202;SDS011;41077;52.956;6.796;2023-05-09T13:10:17;83.50;;;54.33;;
55202;SDS011;41077;52.956;6.796;2023-05-09T13:12:48;78.88;;;52.75;;
55202;SDS011;41077;52.956;6.796;2023-05-09T13:15:14;92.05;;;55.55;;
55202;SDS011;41077;52.956;6.796;2023-05-09T13:17:41;91.15;;;55.70;;
55202;SDS011;41077;52.956;6.796;2023-05-09T13:20:07;88.07;;;56.70;;
55202;SDS011;41077;52.956;6.796;2023-05-09T13:22:33;88.60;;;56.25;;
55202;SDS011;41077;52.956;6.796;2023-05-09T13:24:59;87.65;;;56.72;;
55202;SDS011;41077;52.956;6.796;2023-05-09T13:27:25;87.60;;;58.47;;
55202;SDS011;41077;52.956;6.796;2023-05-09T13:29:52;86.95;;;56.80;;
55202;SDS011;41077;52.956;6.796;2023-05-09T13:32:18;92.72;;;59.85;;
55202;SDS011;41077;52.956;6.796;2023-05-09T13:34:44;94.95;;;61.78;;
55202;SDS011;41077;52.956;6.796;2023-05-09T13:37:10;93.45;;;60.42;;
55202;SDS011;41077;52.956;6.796;2023-05-09T13:39:36;95.65;;;63.20;;
55202;SDS011;41077;52.956;6.796;2023-05-09T13:42:01;93.85;;;63.33;;
55202;SDS011;41077;52.956;6.796;2023-05-09T13:44:28;106.50;;;67.97;;
55202;SDS011;41077;52.956;6.796;2023-05-09T13:46:53;122.82;;;70.45;;
55202;SDS011;41077;52.956;6.796;2023-05-09T13:49:21;129.57;;;75.22;;
55202;SDS011;41077;52.956;6.796;2023-05-09T13:51:47;124.95;;;70.53;;
55202;SDS011;41077;52.956;6.796;2023-05-09T13:54:13;110.85;;;67.68;;
55202;SDS011;41077;52.956;6.796;2023-05-09T13:56:42;115.00;;;70.55;;
55202;SDS011;41077;52.956;6.796;2023-05-09T13:59:08;115.38;;;70.22;;
55202;SDS011;41077;52.956;6.796;2023-05-09T14:01:33;116.95;;;66.55;;
55202;SDS011;41077;52.956;6.796;2023-05-09T14:03:59;94.03;;;55.75;;
55202;SDS011;41077;52.956;6.796;2023-05-09T14:06:25;82.18;;;53.22;;
55202;SDS011;41077;52.956;6.796;2023-05-09T14:08:54;87.35;;;54.70;;
55202;SDS011;41077;52.956;6.796;2023-05-09T14:11:20;89.15;;;54.05;;
55202;SDS011;41077;52.956;6.796;2023-05-09T14:13:45;68.30;;;44.38;;
55202;SDS011;41077;52.956;6.796;2023-05-09T14:16:11;61.40;;;42.20;;
55202;SDS011;41077;52.956;6.796;2023-05-09T14:18:37;51.20;;;36.50;;
55202;SDS011;41077;52.956;6.796;2023-05-09T14:21:03;48.92;;;36.40;;
55202;SDS011;41077;52.956;6.796;2023-05-09T14:23:30;44.50;;;33.70;;
55202;SDS011;41077;52.956;6.796;2023-05-09T14:25:56;38.88;;;31.75;;
55202;SDS011;41077;52.956;6.796;2023-05-09T14:28:22;44.15;;;31.27;;
55202;SDS011;41077;52.956;6.796;2023-05-09T14:30:48;38.50;;;31.60;;
55202;SDS011;41077;52.956;6.796;2023-05-09T14:33:14;37.15;;;30.02;;
55202;SDS011;41077;52.956;6.796;2023-05-09T14:35:39;40.50;;;31.27;;
55202;SDS011;41077;52.956;6.796;2023-05-09T14:38:05;36.67;;;31.33;;
55202;SDS011;41077;52.956;6.796;2023-05-09T14:40:31;35.25;;;30.88;;
55202;SDS011;41077;52.956;6.796;2023-05-09T14:43:00;43.00;;;31.83;;
55202;SDS011;41077;52.956;6.796;2023-05-09T14:45:29;37.72;;;30.88;;